sensor_id;sensor_type;location;lat;lon;timestamp;P1;durP1;ratioP1;P2;durP2;ratioP2
2123;SDS011;1068;52.460;13.528;2022-07-29T00:00:03;4.80;;;3.40;;
2123;SDS011;1068;52.460;13.528;2022-07-29T00:02:30;3.93;;;2.87;;
2123;SDS011;1068;52.460;13.528;2022-07-29T00:04:59;4.10;;;3.17;;
2123;SDS011;1068;52.460;13.528;2022-07-29T00:07:26;6.17;;;2.90;;
2123;SDS011;1068;52.460;13.528;2022-07-29T00:09:53;2.73;;;2.53;;
2123;SDS011;1068;52.460;13.528;2022-07-29T00:12:20;3.63;;;2.70;;
2123;SDS011;1068;52.460;13.528;2022-07-29T00:14:47;6.80;;;3.33;;
2123;SDS011;1068;52.460;13.528;2022-07-29T00:17:14;4.13;;;2.90;;
2123;SDS011;1068;52.460;13.528;2022-07-29T00:19:41;4.77;;;3.40;;
2123;SDS011;1068;52.460;13.528;2022-07-29T00:22:09;5.00;;;3.83;;
2123;SDS011;1068;52.460;13.528;2022-07-29T00:24:36;3.60;;;3.00;;
2123;SDS011;1068;52.460;13.528;2022-07-29T00:27:03;5.37;;;3.47;;
2123;SDS011;1068;52.460;13.528;2022-07-29T00:29:30;3.80;;;2.77;;
2123;SDS011;1068;52.460;13.528;2022-07-29T00:31:57;5.37;;;3.43;;
2123;SDS011;1068;52.460;13.528;2022-07-29T00:34:24;4.37;;;3.30;;
2123;SDS011;1068;52.460;13.528;2022-07-29T00:37:10;3.33;;;3.03;;
2123;SDS011;1068;52.460;13.528;2022-07-29T00:39:37;3.43;;;3.00;;
2123;SDS011;1068;52.460;13.528;2022-07-29T00:42:04;2.90;;;2.70;;
2123;SDS011;1068;52.460;13.528;2022-07-29T00:44:32;4.63;;;2.77;;
2123;SDS011;1068;52.460;13.528;2022-07-29T00:47:02;3.27;;;2.97;;
2123;SDS011;1068;52.460;13.528;2022-07-29T00:49:29;8.40;;;3.43;;
2123;SDS011;1068;52.460;13.528;2022-07-29T00:51:56;5.43;;;2.93;;
2123;SDS011;1068;52.460;13.528;2022-07-29T00:54:24;3.17;;;2.90;;
2123;SDS011;1068;52.460;13.528;2022-07-29T00:56:52;6.23;;;3.33;;
2123;SDS011;1068;52.460;13.528;2022-07-29T00:59:19;7.77;;;3.47;;
2123;SDS011;1068;52.460;13.528;2022-07-29T01:01:46;4.10;;;3.30;;
2123;SDS011;1068;52.460;13.528;2022-07-29T01:04:13;3.50;;;3.13;;
2123;SDS011;1068;52.460;13.528;2022-07-29T01:06:40;4.40;;;3.27;;
2123;SDS011;1068;52.460;13.528;2022-07-29T01:09:07;7.70;;;3.03;;
2123;SDS011;1068;52.460;13.528;2022-07-29T01:11:35;3.87;;;3.00;;
2123;SDS011;1068;52.460;13.528;2022-07-29T01:14:02;8.93;;;3.33;;
2123;SDS011;1068;52.460;13.528;2022-07-29T01:16:31;4.30;;;3.07;;
2123;SDS011;1068;52.460;13.528;2022-07-29T01:19:01;3.40;;;2.97;;
2123;SDS011;1068;52.460;13.528;2022-07-29T01:21:43;6.43;;;2.60;;
2123;SDS011;1068;52.460;13.528;2022-07-29T01:24:28;3.27;;;2.90;;
2123;SDS011;1068;52.460;13.528;2022-07-29T01:26:58;3.40;;;2.93;;
2123;SDS011;1068;52.460;13.528;2022-07-29T01:29:27;5.10;;;3.17;;
2123;SDS011;1068;52.460;13.528;2022-07-29T01:31:56;4.07;;;3.00;;
2123;SDS011;1068;52.460;13.528;2022-07-29T01:34:25;3.47;;;2.80;;
2123;SDS011;1068;52.460;13.528;2022-07-29T01:36:55;4.00;;;3.63;;
2123;SDS011;1068;52.460;13.528;2022-07-29T01:39:26;3.80;;;3.00;;
2123;SDS011;1068;52.460;13.528;2022-07-29T01:41:55;6.03;;;3.50;;
2123;SDS011;1068;52.460;13.528;2022-07-29T01:44:29;4.17;;;3.30;;
2123;SDS011;1068;52.460;13.528;2022-07-29T01:47:00;3.77;;;3.30;;
2123;SDS011;1068;52.460;13.528;2022-07-29T01:49:27;5.60;;;3.03;;
2123;SDS011;1068;52.460;13.528;2022-07-29T01:51:57;4.83;;;3.17;;
2123;SDS011;1068;52.460;13.528;2022-07-29T01:54:26;3.43;;;3.10;;
2123;SDS011;1068;52.460;13.528;2022-07-29T01:56:55;3.63;;;3.30;;
2123;SDS011;1068;52.460;13.528;2022-07-29T01:59:23;8.27;;;3.20;;
2123;SDS011;1068;52.460;13.528;2022-07-29T02:01:50;8.50;;;3.90;;
2123;SDS011;1068;52.460;13.528;2022-07-29T02:04:20;4.13;;;3.70;;
2123;SDS011;1068;52.460;13.528;2022-07-29T02:06:49;5.57;;;3.97;;
2123;SDS011;1068;52.460;13.528;2022-07-29T02:09:17;4.17;;;3.43;;
2123;SDS011;1068;52.460;13.528;2022-07-29T02:11:47;4.17;;;3.20;;
2123;SDS011;1068;52.460;13.528;2022-07-29T02:14:15;4.47;;;4.00;;
2123;SDS011;1068;52.460;13.528;2022-07-29T02:16:43;5.20;;;3.13;;
2123;SDS011;1068;52.460;13.528;2022-07-29T02:19:11;3.30;;;3.00;;
2123;SDS011;1068;52.460;13.528;2022-07-29T02:21:40;4.33;;;3.53;;
2123;SDS011;1068;52.460;13.528;2022-07-29T02:24:08;5.03;;;3.33;;
2123;SDS011;1068;52.460;13.528;2022-07-29T02:26:37;3.50;;;3.20;;
2123;SDS011;1068;52.460;13.528;2022-07-29T02:29:06;4.50;;;3.20;;
2123;SDS011;1068;52.460;13.528;2022-07-29T02:31:33;3.53;;;3.20;;
2123;SDS011;1068;52.460;13.528;2022-07-29T02:34:02;5.03;;;3.53;;
2123;SDS011;1068;52.460;13.528;2022-07-29T02:36:30;4.80;;;3.40;;
2123;SDS011;1068;52.460;13.528;2022-07-29T02:38:59;3.23;;;3.00;;
2123;SDS011;1068;52.460;13.528;2022-07-29T02:41:27;9.47;;;4.00;;
2123;SDS011;1068;52.460;13.528;2022-07-29T02:43:55;9.00;;;2.80;;
2123;SDS011;1068;52.460;13.528;2022-07-29T02:46:25;3.83;;;3.43;;
2123;SDS011;1068;52.460;13.528;2022-07-29T02:48:55;5.93;;;3.10;;
2123;SDS011;1068;52.460;13.528;2022-07-29T02:51:23;5.77;;;3.60;;
2123;SDS011;1068;52.460;13.528;2022-07-29T02:53:51;6.67;;;3.63;;
2123;SDS011;1068;52.460;13.528;2022-07-29T02:56:23;4.10;;;3.80;;
2123;SDS011;1068;52.460;13.528;2022-07-29T02:58:52;6.13;;;3.37;;
2123;SDS011;1068;52.460;13.528;2022-07-29T03:01:20;4.60;;;3.60;;
2123;SDS011;1068;52.460;13.528;2022-07-29T03:03:49;4.03;;;3.63;;
2123;SDS011;1068;52.460;13.528;2022-07-29T03:06:17;4.50;;;3.07;;
2123;SDS011;1068;52.460;13.528;2022-07-29T03:08:45;7.30;;;3.30;;
2123;SDS011;1068;52.460;13.528;2022-07-29T03:11:13;15.73;;;3.50;;
2123;SDS011;1068;52.460;13.528;2022-07-29T03:13:41;6.50;;;3.50;;
2123;SDS011;1068;52.460;13.528;2022-07-29T03:16:10;4.90;;;2.87;;
2123;SDS011;1068;52.460;13.528;2022-07-29T03:18:37;7.33;;;4.20;;
2123;SDS011;1068;52.460;13.528;2022-07-29T03:21:04;4.10;;;3.33;;
2123;SDS011;1068;52.460;13.528;2022-07-29T03:23:32;3.33;;;3.03;;
2123;SDS011;1068;52.460;13.528;2022-07-29T03:25:59;7.20;;;3.40;;
2123;SDS011;1068;52.460;13.528;2022-07-29T03:28:26;3.70;;;3.40;;
2123;SDS011;1068;52.460;13.528;2022-07-29T03:30:54;3.60;;;3.27;;
2123;SDS011;1068;52.460;13.528;2022-07-29T03:33:21;5.47;;;3.57;;
2123;SDS011;1068;52.460;13.528;2022-07-29T03:35:48;6.30;;;3.50;;
2123;SDS011;1068;52.460;13.528;2022-07-29T03:38:15;4.70;;;3.77;;
2123;SDS011;1068;52.460;13.528;2022-07-29T03:40:42;10.17;;;3.90;;
2123;SDS011;1068;52.460;13.528;2022-07-29T03:43:11;4.37;;;3.40;;
2123;SDS011;1068;52.460;13.528;2022-07-29T03:45:39;4.33;;;3.63;;
2123;SDS011;1068;52.460;13.528;2022-07-29T03:48:10;6.30;;;3.40;;
2123;SDS011;1068;52.460;13.528;2022-07-29T03:50:38;5.63;;;3.50;;
2123;SDS011;1068;52.460;13.528;2022-07-29T03:53:04;4.20;;;3.50;;
2123;SDS011;1068;52.460;13.528;2022-07-29T03:55:33;5.20;;;3.20;;
2123;SDS011;1068;52.460;13.528;2022-07-29T03:58:02;5.23;;;3.30;;
2123;SDS011;1068;52.460;13.528;2022-07-29T04:00:30;7.10;;;3.83;;
2123;SDS011;1068;52.460;13.528;2022-07-29T04:02:58;4.07;;;3.37;;
2123;SDS011;1068;52.460;13.528;2022-07-29T04:05:26;6.53;;;3.53;;
2123;SDS011;1068;52.460;13.528;2022-07-29T04:07:53;4.93;;;2.97;;
2123;SDS011;1068;52.460;13.528;2022-07-29T04:10:20;5.10;;;3.60;;
2123;SDS011;1068;52.460;13.528;2022-07-29T04:12:48;3.50;;;3.20;;
2123;SDS011;1068;52.460;13.528;2022-07-29T04:15:14;5.83;;;3.83;;
2123;SDS011;1068;52.460;13.528;2022-07-29T04:17:41;4.60;;;2.70;;
2123;SDS011;1068;52.460;13.528;2022-07-29T04:20:09;3.37;;;3.07;;
2123;SDS011;1068;52.460;13.528;2022-07-29T04:22:39;3.43;;;3.07;;
2123;SDS011;1068;52.460;13.528;2022-07-29T04:25:06;3.30;;;3.00;;
2123;SDS011;1068;52.460;13.528;2022-07-29T04:27:33;5.30;;;3.53;;
2123;SDS011;1068;52.460;13.528;2022-07-29T04:30:00;4.80;;;3.00;;
2123;SDS011;1068;52.460;13.528;2022-07-29T04:32:27;6.53;;;3.00;;
2123;SDS011;1068;52.460;13.528;2022-07-29T04:34:54;5.60;;;3.57;;
2123;SDS011;1068;52.460;13.528;2022-07-29T04:37:21;5.37;;;3.50;;
2123;SDS011;1068;52.460;13.528;2022-07-29T04:39:49;3.53;;;3.20;;
2123;SDS011;1068;52.460;13.528;2022-07-29T04:42:16;3.80;;;3.40;;
2123;SDS011;1068;52.460;13.528;2022-07-29T04:44:43;5.20;;;3.50;;
2123;SDS011;1068;52.460;13.528;2022-07-29T04:47:10;3.13;;;2.80;;
2123;SDS011;1068;52.460;13.528;2022-07-29T04:49:37;9.53;;;4.00;;
2123;SDS011;1068;52.460;13.528;2022-07-29T04:52:05;6.90;;;3.43;;
2123;SDS011;1068;52.460;13.528;2022-07-29T04:54:32;5.23;;;2.57;;
2123;SDS011;1068;52.460;13.528;2022-07-29T04:57:00;3.27;;;3.03;;
2123;SDS011;1068;52.460;13.528;2022-07-29T04:59:27;3.40;;;3.10;;
2123;SDS011;1068;52.460;13.528;2022-07-29T05:01:54;3.90;;;3.60;;
2123;SDS011;1068;52.460;13.528;2022-07-29T05:04:20;5.03;;;3.70;;
2123;SDS011;1068;52.460;13.528;2022-07-29T05:06:47;3.23;;;2.93;;
2123;SDS011;1068;52.460;13.528;2022-07-29T05:09:14;3.30;;;3.00;;
2123;SDS011;1068;52.460;13.528;2022-07-29T05:11:41;3.87;;;3.20;;
2123;SDS011;1068;52.460;13.528;2022-07-29T05:14:10;4.87;;;3.27;;
2123;SDS011;1068;52.460;13.528;2022-07-29T05:16:37;4.37;;;2.60;;
2123;SDS011;1068;52.460;13.528;2022-07-29T05:19:05;4.23;;;2.60;;
2123;SDS011;1068;52.460;13.528;2022-07-29T05:21:32;8.03;;;4.00;;
2123;SDS011;1068;52.460;13.528;2022-07-29T05:23:58;5.00;;;3.47;;
2123;SDS011;1068;52.460;13.528;2022-07-29T05:26:25;4.10;;;2.83;;
2123;SDS011;1068;52.460;13.528;2022-07-29T05:28:53;6.23;;;3.60;;
2123;SDS011;1068;52.460;13.528;2022-07-29T05:31:21;3.93;;;2.77;;
2123;SDS011;1068;52.460;13.528;2022-07-29T05:33:48;3.20;;;2.90;;
2123;SDS011;1068;52.460;13.528;2022-07-29T05:36:15;4.90;;;3.53;;
2123;SDS011;1068;52.460;13.528;2022-07-29T05:38:43;5.43;;;3.00;;
2123;SDS011;1068;52.460;13.528;2022-07-29T05:41:10;4.03;;;2.90;;
2123;SDS011;1068;52.460;13.528;2022-07-29T05:43:36;2.80;;;2.60;;
2123;SDS011;1068;52.460;13.528;2022-07-29T05:46:03;6.23;;;3.70;;
2123;SDS011;1068;52.460;13.528;2022-07-29T05:48:32;4.93;;;2.90;;
2123;SDS011;1068;52.460;13.528;2022-07-29T05:50:58;4.87;;;2.93;;
2123;SDS011;1068;52.460;13.528;2022-07-29T05:53:25;6.13;;;3.10;;
2123;SDS011;1068;52.460;13.528;2022-07-29T05:55:52;5.80;;;2.93;;
2123;SDS011;1068;52.460;13.528;2022-07-29T05:58:19;6.73;;;3.17;;
2123;SDS011;1068;52.460;13.528;2022-07-29T06:00:46;3.30;;;2.80;;
2123;SDS011;1068;52.460;13.528;2022-07-29T06:03:13;4.00;;;2.87;;
2123;SDS011;1068;52.460;13.528;2022-07-29T06:05:41;3.30;;;3.00;;
2123;SDS011;1068;52.460;13.528;2022-07-29T06:08:09;4.17;;;2.53;;
2123;SDS011;1068;52.460;13.528;2022-07-29T06:10:36;7.37;;;3.10;;
2123;SDS011;1068;52.460;13.528;2022-07-29T06:13:03;3.27;;;3.00;;
2123;SDS011;1068;52.460;13.528;2022-07-29T06:15:30;6.07;;;3.27;;
2123;SDS011;1068;52.460;13.528;2022-07-29T06:17:57;6.93;;;3.30;;
2123;SDS011;1068;52.460;13.528;2022-07-29T06:20:24;3.40;;;3.10;;
2123;SDS011;1068;52.460;13.528;2022-07-29T06:22:53;7.40;;;3.13;;
2123;SDS011;1068;52.460;13.528;2022-07-29T06:25:20;3.87;;;3.07;;
2123;SDS011;1068;52.460;13.528;2022-07-29T06:27:47;2.77;;;2.57;;
2123;SDS011;1068;52.460;13.528;2022-07-29T06:30:14;3.43;;;2.70;;
2123;SDS011;1068;52.460;13.528;2022-07-29T06:32:40;3.30;;;2.80;;
2123;SDS011;1068;52.460;13.528;2022-07-29T06:35:08;7.53;;;2.90;;
2123;SDS011;1068;52.460;13.528;2022-07-29T06:37:35;8.80;;;3.30;;
2123;SDS011;1068;52.460;13.528;2022-07-29T06:40:04;5.13;;;2.83;;
2123;SDS011;1068;52.460;13.528;2022-07-29T06:42:49;5.97;;;2.80;;
2123;SDS011;1068;52.460;13.528;2022-07-29T06:45:16;5.23;;;2.77;;
2123;SDS011;1068;52.460;13.528;2022-07-29T06:47:43;3.43;;;2.50;;
2123;SDS011;1068;52.460;13.528;2022-07-29T06:50:10;3.40;;;3.10;;
2123;SDS011;1068;52.460;13.528;2022-07-29T06:52:37;3.40;;;2.60;;
2123;SDS011;1068;52.460;13.528;2022-07-29T06:55:07;5.57;;;2.60;;
2123;SDS011;1068;52.460;13.528;2022-07-29T06:57:34;5.37;;;2.57;;
2123;SDS011;1068;52.460;13.528;2022-07-29T07:00:02;3.80;;;2.90;;
2123;SDS011;1068;52.460;13.528;2022-07-29T07:02:30;7.53;;;2.80;;
2123;SDS011;1068;52.460;13.528;2022-07-29T07:04:57;3.23;;;2.63;;
2123;SDS011;1068;52.460;13.528;2022-07-29T07:07:24;3.50;;;2.70;;
2123;SDS011;1068;52.460;13.528;2022-07-29T07:09:51;4.43;;;2.53;;
2123;SDS011;1068;52.460;13.528;2022-07-29T07:12:19;4.00;;;3.20;;
2123;SDS011;1068;52.460;13.528;2022-07-29T07:14:46;4.23;;;2.57;;
2123;SDS011;1068;52.460;13.528;2022-07-29T07:17:13;9.30;;;2.53;;
2123;SDS011;1068;52.460;13.528;2022-07-29T07:19:40;6.33;;;2.77;;
2123;SDS011;1068;52.460;13.528;2022-07-29T07:22:07;6.30;;;2.90;;
2123;SDS011;1068;52.460;13.528;2022-07-29T07:24:34;6.70;;;3.00;;
2123;SDS011;1068;52.460;13.528;2022-07-29T07:27:01;2.47;;;2.27;;
2123;SDS011;1068;52.460;13.528;2022-07-29T07:29:29;4.83;;;2.60;;
2123;SDS011;1068;52.460;13.528;2022-07-29T07:31:57;2.83;;;2.60;;
2123;SDS011;1068;52.460;13.528;2022-07-29T07:34:23;16.60;;;3.10;;
2123;SDS011;1068;52.460;13.528;2022-07-29T07:36:50;7.43;;;2.53;;
2123;SDS011;1068;52.460;13.528;2022-07-29T07:39:17;4.33;;;2.30;;
2123;SDS011;1068;52.460;13.528;2022-07-29T07:41:44;3.40;;;2.40;;
2123;SDS011;1068;52.460;13.528;2022-07-29T07:44:11;2.70;;;2.50;;
2123;SDS011;1068;52.460;13.528;2022-07-29T07:46:39;4.07;;;2.20;;
2123;SDS011;1068;52.460;13.528;2022-07-29T07:49:06;3.10;;;2.37;;
2123;SDS011;1068;52.460;13.528;2022-07-29T07:51:33;5.13;;;2.40;;
2123;SDS011;1068;52.460;13.528;2022-07-29T07:54:00;3.30;;;2.63;;
2123;SDS011;1068;52.460;13.528;2022-07-29T07:56:27;4.00;;;2.43;;
2123;SDS011;1068;52.460;13.528;2022-07-29T07:58:54;2.63;;;2.23;;
2123;SDS011;1068;52.460;13.528;2022-07-29T08:01:21;3.00;;;2.50;;
2123;SDS011;1068;52.460;13.528;2022-07-29T08:03:49;3.90;;;2.37;;
2123;SDS011;1068;52.460;13.528;2022-07-29T08:06:16;3.50;;;2.50;;
2123;SDS011;1068;52.460;13.528;2022-07-29T08:08:43;2.57;;;2.37;;
2123;SDS011;1068;52.460;13.528;2022-07-29T08:11:10;2.63;;;2.43;;
2123;SDS011;1068;52.460;13.528;2022-07-29T08:13:37;3.43;;;2.60;;
2123;SDS011;1068;52.460;13.528;2022-07-29T08:16:04;3.80;;;2.10;;
2123;SDS011;1068;52.460;13.528;2022-07-29T08:18:37;4.17;;;2.70;;
2123;SDS011;1068;52.460;13.528;2022-07-29T08:21:06;6.53;;;2.30;;
2123;SDS011;1068;52.460;13.528;2022-07-29T08:23:33;3.67;;;1.97;;
2123;SDS011;1068;52.460;13.528;2022-07-29T08:26:03;4.77;;;2.80;;
2123;SDS011;1068;52.460;13.528;2022-07-29T08:28:30;3.60;;;2.10;;
2123;SDS011;1068;52.460;13.528;2022-07-29T08:30:57;3.20;;;2.10;;
2123;SDS011;1068;52.460;13.528;2022-07-29T08:33:24;3.97;;;2.20;;
2123;SDS011;1068;52.460;13.528;2022-07-29T08:35:51;2.20;;;2.00;;
2123;SDS011;1068;52.460;13.528;2022-07-29T08:38:19;5.53;;;1.97;;
2123;SDS011;1068;52.460;13.528;2022-07-29T08:40:46;2.50;;;1.87;;
2123;SDS011;1068;52.460;13.528;2022-07-29T08:43:13;4.20;;;2.10;;
2123;SDS011;1068;52.460;13.528;2022-07-29T08:45:41;3.10;;;2.10;;
2123;SDS011;1068;52.460;13.528;2022-07-29T08:48:10;2.80;;;2.10;;
2123;SDS011;1068;52.460;13.528;2022-07-29T08:50:37;3.63;;;2.00;;
2123;SDS011;1068;52.460;13.528;2022-07-29T08:53:05;5.53;;;2.37;;
2123;SDS011;1068;52.460;13.528;2022-07-29T08:55:34;5.40;;;2.30;;
2123;SDS011;1068;52.460;13.528;2022-07-29T08:58:01;4.90;;;2.37;;
2123;SDS011;1068;52.460;13.528;2022-07-29T09:00:28;4.43;;;2.30;;
2123;SDS011;1068;52.460;13.528;2022-07-29T09:02:56;6.10;;;2.43;;
2123;SDS011;1068;52.460;13.528;2022-07-29T09:05:24;3.37;;;2.20;;
2123;SDS011;1068;52.460;13.528;2022-07-29T09:07:52;4.80;;;1.97;;
2123;SDS011;1068;52.460;13.528;2022-07-29T09:10:19;4.10;;;2.30;;
2123;SDS011;1068;52.460;13.528;2022-07-29T09:12:48;3.47;;;1.90;;
2123;SDS011;1068;52.460;13.528;2022-07-29T09:15:15;2.23;;;2.03;;
2123;SDS011;1068;52.460;13.528;2022-07-29T09:17:43;2.47;;;1.63;;
2123;SDS011;1068;52.460;13.528;2022-07-29T09:20:10;2.10;;;1.90;;
2123;SDS011;1068;52.460;13.528;2022-07-29T09:22:38;4.40;;;2.33;;
2123;SDS011;1068;52.460;13.528;2022-07-29T09:25:05;1.90;;;1.70;;
2123;SDS011;1068;52.460;13.528;2022-07-29T09:27:32;2.77;;;1.57;;
2123;SDS011;1068;52.460;13.528;2022-07-29T09:30:02;3.87;;;2.33;;
2123;SDS011;1068;52.460;13.528;2022-07-29T09:32:30;3.60;;;1.80;;
2123;SDS011;1068;52.460;13.528;2022-07-29T09:35:19;2.73;;;2.10;;
2123;SDS011;1068;52.460;13.528;2022-07-29T09:37:46;2.30;;;2.10;;
2123;SDS011;1068;52.460;13.528;2022-07-29T09:40:14;2.17;;;1.97;;
2123;SDS011;1068;52.460;13.528;2022-07-29T09:42:41;3.63;;;1.80;;
2123;SDS011;1068;52.460;13.528;2022-07-29T09:45:10;2.13;;;1.97;;
2123;SDS011;1068;52.460;13.528;2022-07-29T09:47:40;6.43;;;2.47;;
2123;SDS011;1068;52.460;13.528;2022-07-29T09:50:09;4.83;;;1.90;;
2123;SDS011;1068;52.460;13.528;2022-07-29T09:52:44;4.30;;;2.33;;
2123;SDS011;1068;52.460;13.528;2022-07-29T09:55:11;1.93;;;1.77;;
2123;SDS011;1068;52.460;13.528;2022-07-29T09:57:38;5.33;;;3.47;;
2123;SDS011;1068;52.460;13.528;2022-07-29T10:00:06;3.80;;;1.73;;
2123;SDS011;1068;52.460;13.528;2022-07-29T10:02:36;1.90;;;1.80;;
2123;SDS011;1068;52.460;13.528;2022-07-29T10:05:03;3.17;;;1.87;;
2123;SDS011;1068;52.460;13.528;2022-07-29T10:07:42;3.50;;;1.73;;
2123;SDS011;1068;52.460;13.528;2022-07-29T10:10:09;2.77;;;2.20;;
2123;SDS011;1068;52.460;13.528;2022-07-29T10:12:47;2.87;;;1.73;;
2123;SDS011;1068;52.460;13.528;2022-07-29T10:15:15;1.90;;;1.70;;
2123;SDS011;1068;52.460;13.528;2022-07-29T10:17:43;2.90;;;1.87;;
2123;SDS011;1068;52.460;13.528;2022-07-29T10:20:10;2.23;;;2.00;;
2123;SDS011;1068;52.460;13.528;2022-07-29T10:22:37;4.30;;;1.97;;
2123;SDS011;1068;52.460;13.528;2022-07-29T10:25:05;3.00;;;1.90;;
2123;SDS011;1068;52.460;13.528;2022-07-29T10:27:32;2.43;;;1.80;;
2123;SDS011;1068;52.460;13.528;2022-07-29T10:29:58;1.90;;;1.80;;
2123;SDS011;1068;52.460;13.528;2022-07-29T10:32:30;4.30;;;2.00;;
2123;SDS011;1068;52.460;13.528;2022-07-29T10:35:08;2.07;;;1.80;;
2123;SDS011;1068;52.460;13.528;2022-07-29T10:37:44;1.90;;;1.80;;
2123;SDS011;1068;52.460;13.528;2022-07-29T10:40:15;2.37;;;2.00;;
2123;SDS011;1068;52.460;13.528;2022-07-29T10:45:43;2.03;;;1.80;;
2123;SDS011;1068;52.460;13.528;2022-07-29T10:48:11;2.83;;;1.90;;
2123;SDS011;1068;52.460;13.528;2022-07-29T10:50:55;2.30;;;2.10;;
2123;SDS011;1068;52.460;13.528;2022-07-29T10:53:23;3.20;;;2.07;;
2123;SDS011;1068;52.460;13.528;2022-07-29T10:55:51;4.63;;;2.97;;
2123;SDS011;1068;52.460;13.528;2022-07-29T10:58:18;2.53;;;1.90;;
2123;SDS011;1068;52.460;13.528;2022-07-29T11:00:46;7.70;;;2.37;;
2123;SDS011;1068;52.460;13.528;2022-07-29T11:06:01;3.70;;;2.53;;
2123;SDS011;1068;52.460;13.528;2022-07-29T11:08:28;3.27;;;2.33;;
2123;SDS011;1068;52.460;13.528;2022-07-29T11:13:48;5.23;;;2.53;;
2123;SDS011;1068;52.460;13.528;2022-07-29T11:16:20;3.97;;;2.40;;
2123;SDS011;1068;52.460;13.528;2022-07-29T11:21:37;2.80;;;2.40;;
2123;SDS011;1068;52.460;13.528;2022-07-29T11:24:11;2.57;;;2.37;;
2123;SDS011;1068;52.460;13.528;2022-07-29T11:26:38;4.33;;;2.30;;
2123;SDS011;1068;52.460;13.528;2022-07-29T11:29:08;3.83;;;2.77;;
2123;SDS011;1068;52.460;13.528;2022-07-29T11:31:41;4.57;;;2.50;;
2123;SDS011;1068;52.460;13.528;2022-07-29T11:34:15;4.73;;;3.10;;
2123;SDS011;1068;52.460;13.528;2022-07-29T11:39:26;5.57;;;2.40;;
2123;SDS011;1068;52.460;13.528;2022-07-29T11:41:54;5.70;;;2.30;;
2123;SDS011;1068;52.460;13.528;2022-07-29T11:44:53;4.07;;;2.03;;
2123;SDS011;1068;52.460;13.528;2022-07-29T11:47:20;3.50;;;3.00;;
2123;SDS011;1068;52.460;13.528;2022-07-29T11:49:48;3.07;;;2.80;;
2123;SDS011;1068;52.460;13.528;2022-07-29T11:52:15;2.60;;;2.40;;
2123;SDS011;1068;52.460;13.528;2022-07-29T11:54:44;3.27;;;2.43;;
2123;SDS011;1068;52.460;13.528;2022-07-29T11:57:13;3.00;;;2.70;;
2123;SDS011;1068;52.460;13.528;2022-07-29T11:59:43;4.30;;;3.00;;
2123;SDS011;1068;52.460;13.528;2022-07-29T12:02:10;3.13;;;2.53;;
2123;SDS011;1068;52.460;13.528;2022-07-29T12:04:47;3.63;;;2.50;;
2123;SDS011;1068;52.460;13.528;2022-07-29T12:07:14;3.03;;;2.70;;
2123;SDS011;1068;52.460;13.528;2022-07-29T12:09:49;4.40;;;2.53;;
2123;SDS011;1068;52.460;13.528;2022-07-29T12:12:17;3.80;;;3.00;;
2123;SDS011;1068;52.460;13.528;2022-07-29T12:14:43;2.80;;;2.20;;
2123;SDS011;1068;52.460;13.528;2022-07-29T12:17:24;3.87;;;2.90;;
2123;SDS011;1068;52.460;13.528;2022-07-29T12:19:51;5.10;;;2.50;;
2123;SDS011;1068;52.460;13.528;2022-07-29T12:22:24;6.03;;;2.73;;
2123;SDS011;1068;52.460;13.528;2022-07-29T12:24:53;3.37;;;2.60;;
2123;SDS011;1068;52.460;13.528;2022-07-29T12:27:20;4.53;;;3.03;;
2123;SDS011;1068;52.460;13.528;2022-07-29T12:29:55;5.10;;;2.70;;
2123;SDS011;1068;52.460;13.528;2022-07-29T12:32:22;3.10;;;2.90;;
2123;SDS011;1068;52.460;13.528;2022-07-29T12:34:49;2.90;;;2.70;;
2123;SDS011;1068;52.460;13.528;2022-07-29T12:37:17;2.70;;;2.50;;
2123;SDS011;1068;52.460;13.528;2022-07-29T12:39:43;3.10;;;2.43;;
2123;SDS011;1068;52.460;13.528;2022-07-29T12:42:12;3.30;;;2.50;;
2123;SDS011;1068;52.460;13.528;2022-07-29T12:44:43;3.90;;;2.80;;
2123;SDS011;1068;52.460;13.528;2022-07-29T12:47:10;7.67;;;3.23;;
2123;SDS011;1068;52.460;13.528;2022-07-29T12:49:37;4.10;;;2.50;;
2123;SDS011;1068;52.460;13.528;2022-07-29T12:54:46;2.90;;;2.70;;
2123;SDS011;1068;52.460;13.528;2022-07-29T12:57:14;3.47;;;2.60;;
2123;SDS011;1068;52.460;13.528;2022-07-29T12:59:41;4.70;;;3.10;;
2123;SDS011;1068;52.460;13.528;2022-07-29T13:02:09;7.03;;;2.93;;
2123;SDS011;1068;52.460;13.528;2022-07-29T13:04:54;4.97;;;3.30;;
2123;SDS011;1068;52.460;13.528;2022-07-29T13:07:23;4.33;;;3.10;;
2123;SDS011;1068;52.460;13.528;2022-07-29T13:09:50;3.90;;;2.80;;
2123;SDS011;1068;52.460;13.528;2022-07-29T13:12:18;3.57;;;2.23;;
2123;SDS011;1068;52.460;13.528;2022-07-29T13:14:46;4.80;;;3.03;;
2123;SDS011;1068;52.460;13.528;2022-07-29T13:17:14;2.40;;;2.30;;
2123;SDS011;1068;52.460;13.528;2022-07-29T13:19:42;6.13;;;3.77;;
2123;SDS011;1068;52.460;13.528;2022-07-29T13:22:10;2.33;;;2.20;;
2123;SDS011;1068;52.460;13.528;2022-07-29T13:24:47;3.80;;;2.87;;
2123;SDS011;1068;52.460;13.528;2022-07-29T13:27:14;3.17;;;2.37;;
2123;SDS011;1068;52.460;13.528;2022-07-29T13:29:43;2.83;;;2.50;;
2123;SDS011;1068;52.460;13.528;2022-07-29T13:32:10;2.77;;;2.47;;
2123;SDS011;1068;52.460;13.528;2022-07-29T13:34:37;7.90;;;3.03;;
2123;SDS011;1068;52.460;13.528;2022-07-29T13:37:05;2.50;;;2.40;;
2123;SDS011;1068;52.460;13.528;2022-07-29T13:39:32;8.53;;;3.07;;
2123;SDS011;1068;52.460;13.528;2022-07-29T13:41:59;3.00;;;2.20;;
2123;SDS011;1068;52.460;13.528;2022-07-29T13:44:26;7.03;;;3.20;;
2123;SDS011;1068;52.460;13.528;2022-07-29T13:46:55;2.90;;;2.20;;
2123;SDS011;1068;52.460;13.528;2022-07-29T13:49:23;7.43;;;2.80;;
2123;SDS011;1068;52.460;13.528;2022-07-29T13:51:50;2.60;;;2.40;;
2123;SDS011;1068;52.460;13.528;2022-07-29T13:54:17;4.27;;;2.70;;
2123;SDS011;1068;52.460;13.528;2022-07-29T13:56:44;13.40;;;2.90;;
2123;SDS011;1068;52.460;13.528;2022-07-29T13:59:11;3.80;;;3.50;;
2123;SDS011;1068;52.460;13.528;2022-07-29T14:01:39;3.07;;;2.87;;
2123;SDS011;1068;52.460;13.528;2022-07-29T14:04:08;2.60;;;2.40;;
2123;SDS011;1068;52.460;13.528;2022-07-29T14:06:35;3.63;;;2.23;;
2123;SDS011;1068;52.460;13.528;2022-07-29T14:09:03;4.83;;;2.23;;
2123;SDS011;1068;52.460;13.528;2022-07-29T14:11:31;4.40;;;2.43;;
2123;SDS011;1068;52.460;13.528;2022-07-29T14:13:58;7.13;;;2.97;;
2123;SDS011;1068;52.460;13.528;2022-07-29T14:16:25;2.60;;;2.40;;
2123;SDS011;1068;52.460;13.528;2022-07-29T14:18:52;2.50;;;2.40;;
2123;SDS011;1068;52.460;13.528;2022-07-29T14:21:20;3.47;;;2.60;;
2123;SDS011;1068;52.460;13.528;2022-07-29T14:23:47;6.90;;;3.03;;
2123;SDS011;1068;52.460;13.528;2022-07-29T14:26:15;2.57;;;2.37;;
2123;SDS011;1068;52.460;13.528;2022-07-29T14:28:42;2.47;;;2.27;;
2123;SDS011;1068;52.460;13.528;2022-07-29T14:31:09;2.63;;;2.43;;
2123;SDS011;1068;52.460;13.528;2022-07-29T14:33:36;3.77;;;2.73;;
2123;SDS011;1068;52.460;13.528;2022-07-29T14:36:03;6.73;;;2.80;;
2123;SDS011;1068;52.460;13.528;2022-07-29T14:38:31;4.07;;;2.70;;
2123;SDS011;1068;52.460;13.528;2022-07-29T14:40:58;2.97;;;2.20;;
2123;SDS011;1068;52.460;13.528;2022-07-29T14:43:25;2.70;;;2.47;;
2123;SDS011;1068;52.460;13.528;2022-07-29T14:45:52;2.33;;;2.20;;
2123;SDS011;1068;52.460;13.528;2022-07-29T14:48:19;3.40;;;2.97;;
2123;SDS011;1068;52.460;13.528;2022-07-29T14:50:46;4.30;;;3.27;;
2123;SDS011;1068;52.460;13.528;2022-07-29T14:53:13;2.80;;;2.57;;
2123;SDS011;1068;52.460;13.528;2022-07-29T14:55:42;2.87;;;2.57;;
2123;SDS011;1068;52.460;13.528;2022-07-29T14:58:09;2.27;;;2.17;;
2123;SDS011;1068;52.460;13.528;2022-07-29T15:00:36;2.50;;;2.30;;
2123;SDS011;1068;52.460;13.528;2022-07-29T15:03:03;2.67;;;2.47;;
2123;SDS011;1068;52.460;13.528;2022-07-29T15:05:30;2.80;;;2.50;;
2123;SDS011;1068;52.460;13.528;2022-07-29T15:07:57;3.33;;;2.70;;
2123;SDS011;1068;52.460;13.528;2022-07-29T15:10:24;2.30;;;2.10;;
2123;SDS011;1068;52.460;13.528;2022-07-29T15:12:53;2.70;;;2.50;;
2123;SDS011;1068;52.460;13.528;2022-07-29T15:15:20;2.40;;;2.20;;
2123;SDS011;1068;52.460;13.528;2022-07-29T15:17:47;2.70;;;2.43;;
2123;SDS011;1068;52.460;13.528;2022-07-29T15:20:14;2.40;;;2.20;;
2123;SDS011;1068;52.460;13.528;2022-07-29T15:22:41;3.10;;;2.40;;